sensor_id;sensor_type;location;lat;lon;timestamp;P1;durP1;ratioP1;P2;durP2;ratioP2
84303;SDS011;74469;52.520;16.998;2024-01-15T00:01:32;9.80;;;5.40;;
84303;SDS011;74469;52.520;16.998;2024-01-15T00:07:10;9.40;;;5.60;;
84303;SDS011;74469;52.520;16.998;2024-01-15T00:12:18;8.70;;;4.10;;
84303;SDS011;74469;52.520;16.998;2024-01-15T00:17:24;9.10;;;5.20;;
84303;SDS011;74469;52.520;16.998;2024-01-15T00:27:37;10.20;;;5.10;;
84303;SDS011;74469;52.520;16.998;2024-01-15T00:32:40;7.90;;;4.60;;
84303;SDS011;74469;52.520;16.998;2024-01-15T00:37:43;14.60;;;6.20;;
84303;SDS011;74469;52.520;16.998;2024-01-15T00:42:45;9.70;;;5.60;;
84303;SDS011;74469;52.520;16.998;2024-01-15T00:47:49;11.00;;;5.50;;
84303;SDS011;74469;52.520;16.998;2024-01-15T00:53:16;10.50;;;5.90;;
84303;SDS011;74469;52.520;16.998;2024-01-15T00:58:19;8.80;;;5.30;;
84303;SDS011;74469;52.520;16.998;2024-01-15T01:03:27;10.80;;;6.90;;
84303;SDS011;74469;52.520;16.998;2024-01-15T01:08:31;9.10;;;5.20;;
84303;SDS011;74469;52.520;16.998;2024-01-15T01:13:34;12.50;;;6.10;;
84303;SDS011;74469;52.520;16.998;2024-01-15T01:18:37;8.40;;;4.80;;
84303;SDS011;74469;52.520;16.998;2024-01-15T01:23:40;13.60;;;6.00;;
84303;SDS011;74469;52.520;16.998;2024-01-15T01:28:42;11.30;;;5.60;;
84303;SDS011;74469;52.520;16.998;2024-01-15T01:33:45;10.60;;;5.40;;
84303;SDS011;74469;52.520;16.998;2024-01-15T01:38:48;9.00;;;5.00;;
84303;SDS011;74469;52.520;16.998;2024-01-15T01:43:50;14.00;;;6.60;;
84303;SDS011;74469;52.520;16.998;2024-01-15T01:48:53;8.50;;;4.90;;
84303;SDS011;74469;52.520;16.998;2024-01-15T01:53:57;9.30;;;5.30;;
84303;SDS011;74469;52.520;16.998;2024-01-15T01:59:01;11.70;;;5.70;;
84303;SDS011;74469;52.520;16.998;2024-01-15T02:04:04;8.20;;;4.80;;
84303;SDS011;74469;52.520;16.998;2024-01-15T02:09:07;13.00;;;7.00;;
84303;SDS011;74469;52.520;16.998;2024-01-15T02:14:10;8.50;;;3.90;;
84303;SDS011;74469;52.520;16.998;2024-01-15T02:19:16;14.40;;;6.80;;
84303;SDS011;74469;52.520;16.998;2024-01-15T02:24:19;12.30;;;6.00;;
84303;SDS011;74469;52.520;16.998;2024-01-15T02:29:22;13.20;;;5.80;;
84303;SDS011;74469;52.520;16.998;2024-01-15T02:34:25;10.00;;;5.60;;
84303;SDS011;74469;52.520;16.998;2024-01-15T02:39:27;8.80;;;5.50;;
84303;SDS011;74469;52.520;16.998;2024-01-15T02:44:31;13.00;;;6.30;;
84303;SDS011;74469;52.520;16.998;2024-01-15T02:49:34;8.70;;;4.80;;
84303;SDS011;74469;52.520;16.998;2024-01-15T02:54:37;10.00;;;5.20;;
84303;SDS011;74469;52.520;16.998;2024-01-15T02:59:40;9.30;;;5.00;;
84303;SDS011;74469;52.520;16.998;2024-01-15T03:05:03;10.10;;;6.30;;
84303;SDS011;74469;52.520;16.998;2024-01-15T03:10:15;12.20;;;4.90;;
84303;SDS011;74469;52.520;16.998;2024-01-15T03:15:33;21.00;;;7.20;;
84303;SDS011;74469;52.520;16.998;2024-01-15T03:20:39;10.50;;;4.00;;
84303;SDS011;74469;52.520;16.998;2024-01-15T03:25:44;10.20;;;5.10;;
84303;SDS011;74469;52.520;16.998;2024-01-15T03:36:02;14.30;;;6.40;;
84303;SDS011;74469;52.520;16.998;2024-01-15T03:41:05;11.60;;;4.70;;
84303;SDS011;74469;52.520;16.998;2024-01-15T03:46:08;17.70;;;6.80;;
84303;SDS011;74469;52.520;16.998;2024-01-15T03:51:10;12.10;;;5.80;;
84303;SDS011;74469;52.520;16.998;2024-01-15T03:56:13;6.60;;;3.70;;
84303;SDS011;74469;52.520;16.998;2024-01-15T04:17:41;7.80;;;5.20;;
84303;SDS011;74469;52.520;16.998;2024-01-15T04:22:44;8.70;;;4.30;;
84303;SDS011;74469;52.520;16.998;2024-01-15T04:27:46;8.30;;;3.50;;
84303;SDS011;74469;52.520;16.998;2024-01-15T04:32:49;5.00;;;3.40;;
84303;SDS011;74469;52.520;16.998;2024-01-15T04:37:52;9.20;;;4.70;;
84303;SDS011;74469;52.520;16.998;2024-01-15T04:42:54;7.50;;;3.30;;
84303;SDS011;74469;52.520;16.998;2024-01-15T04:47:57;7.20;;;4.50;;
84303;SDS011;74469;52.520;16.998;2024-01-15T04:53:03;5.90;;;4.20;;
84303;SDS011;74469;52.520;16.998;2024-01-15T05:20:38;2.20;;;1.60;;
84303;SDS011;74469;52.520;16.998;2024-01-15T05:25:40;4.70;;;3.10;;
84303;SDS011;74469;52.520;16.998;2024-01-15T05:30:43;3.80;;;2.20;;
84303;SDS011;74469;52.520;16.998;2024-01-15T05:35:46;4.00;;;2.70;;
84303;SDS011;74469;52.520;16.998;2024-01-15T05:40:48;4.40;;;2.50;;
84303;SDS011;74469;52.520;16.998;2024-01-15T05:45:51;8.10;;;3.10;;
84303;SDS011;74469;52.520;16.998;2024-01-15T05:50:54;6.90;;;3.20;;
84303;SDS011;74469;52.520;16.998;2024-01-15T05:55:57;4.50;;;3.00;;
84303;SDS011;74469;52.520;16.998;2024-01-15T06:00:59;7.90;;;3.00;;
84303;SDS011;74469;52.520;16.998;2024-01-15T06:06:04;5.00;;;3.30;;
84303;SDS011;74469;52.520;16.998;2024-01-15T06:11:07;4.30;;;3.10;;
84303;SDS011;74469;52.520;16.998;2024-01-15T06:16:16;4.30;;;2.50;;
84303;SDS011;74469;52.520;16.998;2024-01-15T06:21:21;6.90;;;3.40;;
84303;SDS011;74469;52.520;16.998;2024-01-15T06:26:24;6.60;;;3.40;;
84303;SDS011;74469;52.520;16.998;2024-01-15T06:31:27;5.00;;;2.50;;
84303;SDS011;74469;52.520;16.998;2024-01-15T06:36:29;4.40;;;2.50;;
84303;SDS011;74469;52.520;16.998;2024-01-15T06:41:32;6.60;;;3.60;;
84303;SDS011;74469;52.520;16.998;2024-01-15T06:46:35;6.20;;;2.90;;
84303;SDS011;74469;52.520;16.998;2024-01-15T06:51:38;7.90;;;3.90;;
84303;SDS011;74469;52.520;16.998;2024-01-15T06:56:41;5.60;;;3.10;;
84303;SDS011;74469;52.520;16.998;2024-01-15T07:01:43;6.90;;;3.60;;
84303;SDS011;74469;52.520;16.998;2024-01-15T07:06:46;7.30;;;3.10;;
84303;SDS011;74469;52.520;16.998;2024-01-15T07:11:50;5.90;;;3.20;;
84303;SDS011;74469;52.520;16.998;2024-01-15T07:16:53;10.60;;;3.40;;
84303;SDS011;74469;52.520;16.998;2024-01-15T07:21:56;6.30;;;3.20;;
84303;SDS011;74469;52.520;16.998;2024-01-15T07:26:59;5.30;;;3.10;;
84303;SDS011;74469;52.520;16.998;2024-01-15T07:32:02;6.20;;;2.30;;
84303;SDS011;74469;52.520;16.998;2024-01-15T07:37:05;6.60;;;2.80;;
84303;SDS011;74469;52.520;16.998;2024-01-15T07:42:08;6.30;;;4.90;;
84303;SDS011;74469;52.520;16.998;2024-01-15T07:47:10;6.50;;;4.20;;
84303;SDS011;74469;52.520;16.998;2024-01-15T07:52:13;4.70;;;3.30;;
84303;SDS011;74469;52.520;16.998;2024-01-15T07:57:16;5.40;;;3.40;;
84303;SDS011;74469;52.520;16.998;2024-01-15T08:02:19;5.20;;;3.70;;
84303;SDS011;74469;52.520;16.998;2024-01-15T08:07:21;10.60;;;3.80;;
84303;SDS011;74469;52.520;16.998;2024-01-15T08:12:24;10.50;;;4.10;;
84303;SDS011;74469;52.520;16.998;2024-01-15T08:17:27;6.90;;;3.40;;
84303;SDS011;74469;52.520;16.998;2024-01-15T08:22:30;8.70;;;5.30;;
84303;SDS011;74469;52.520;16.998;2024-01-15T08:27:33;5.40;;;3.00;;
84303;SDS011;74469;52.520;16.998;2024-01-15T08:37:49;9.20;;;3.60;;
84303;SDS011;74469;52.520;16.998;2024-01-15T08:42:52;5.30;;;2.40;;
84303;SDS011;74469;52.520;16.998;2024-01-15T08:47:54;8.90;;;4.00;;
84303;SDS011;74469;52.520;16.998;2024-01-15T08:52:57;6.40;;;3.70;;
84303;SDS011;74469;52.520;16.998;2024-01-15T08:58:01;7.40;;;3.70;;
84303;SDS011;74469;52.520;16.998;2024-01-15T09:03:04;11.50;;;5.90;;
84303;SDS011;74469;52.520;16.998;2024-01-15T09:08:07;8.40;;;3.20;;
84303;SDS011;74469;52.520;16.998;2024-01-15T09:13:09;6.20;;;3.20;;
84303;SDS011;74469;52.520;16.998;2024-01-15T09:18:12;8.00;;;3.50;;
84303;SDS011;74469;52.520;16.998;2024-01-15T09:23:15;8.80;;;3.90;;
84303;SDS011;74469;52.520;16.998;2024-01-15T09:28:17;9.80;;;5.10;;
84303;SDS011;74469;52.520;16.998;2024-01-15T09:33:20;5.30;;;3.10;;
84303;SDS011;74469;52.520;16.998;2024-01-15T09:38:23;9.20;;;3.20;;
84303;SDS011;74469;52.520;16.998;2024-01-15T09:43:26;8.30;;;3.80;;
84303;SDS011;74469;52.520;16.998;2024-01-15T09:48:29;4.10;;;2.90;;
84303;SDS011;74469;52.520;16.998;2024-01-15T09:53:32;7.60;;;2.80;;
84303;SDS011;74469;52.520;16.998;2024-01-15T09:58:35;7.10;;;4.00;;
84303;SDS011;74469;52.520;16.998;2024-01-15T10:03:39;8.80;;;4.10;;
84303;SDS011;74469;52.520;16.998;2024-01-15T10:08:42;4.60;;;2.30;;
84303;SDS011;74469;52.520;16.998;2024-01-15T10:13:46;6.40;;;3.30;;
84303;SDS011;74469;52.520;16.998;2024-01-15T10:18:49;6.90;;;3.50;;
84303;SDS011;74469;52.520;16.998;2024-01-15T10:23:52;9.10;;;3.80;;
84303;SDS011;74469;52.520;16.998;2024-01-15T10:28:54;6.50;;;3.10;;
84303;SDS011;74469;52.520;16.998;2024-01-15T10:34:13;3.30;;;2.10;;
84303;SDS011;74469;52.520;16.998;2024-01-15T10:39:17;5.50;;;2.80;;
84303;SDS011;74469;52.520;16.998;2024-01-15T10:44:20;4.70;;;2.80;;
84303;SDS011;74469;52.520;16.998;2024-01-15T10:49:23;3.40;;;1.60;;
84303;SDS011;74469;52.520;16.998;2024-01-15T10:54:28;11.00;;;3.90;;
84303;SDS011;74469;52.520;16.998;2024-01-15T10:59:32;5.80;;;2.50;;
84303;SDS011;74469;52.520;16.998;2024-01-15T11:04:35;8.00;;;2.70;;
84303;SDS011;74469;52.520;16.998;2024-01-15T11:09:37;4.20;;;2.00;;
84303;SDS011;74469;52.520;16.998;2024-01-15T11:14:41;4.90;;;2.00;;
84303;SDS011;74469;52.520;16.998;2024-01-15T11:19:48;7.30;;;2.60;;
84303;SDS011;74469;52.520;16.998;2024-01-15T11:24:54;9.30;;;2.80;;
84303;SDS011;74469;52.520;16.998;2024-01-15T11:30:04;3.00;;;1.70;;
84303;SDS011;74469;52.520;16.998;2024-01-15T11:35:07;5.80;;;2.30;;
84303;SDS011;74469;52.520;16.998;2024-01-15T11:40:11;4.80;;;4.20;;
84303;SDS011;74469;52.520;16.998;2024-01-15T11:45:16;6.80;;;2.40;;
84303;SDS011;74469;52.520;16.998;2024-01-15T11:50:21;7.30;;;3.00;;
84303;SDS011;74469;52.520;16.998;2024-01-15T11:55:29;6.10;;;2.50;;
84303;SDS011;74469;52.520;16.998;2024-01-15T12:00:35;7.20;;;2.00;;
84303;SDS011;74469;52.520;16.998;2024-01-15T12:05:43;4.60;;;1.80;;
84303;SDS011;74469;52.520;16.998;2024-01-15T12:10:45;7.90;;;2.80;;
84303;SDS011;74469;52.520;16.998;2024-01-15T12:15:48;4.90;;;2.70;;
84303;SDS011;74469;52.520;16.998;2024-01-15T12:20:52;6.10;;;1.90;;
84303;SDS011;74469;52.520;16.998;2024-01-15T12:25:56;5.20;;;3.50;;
84303;SDS011;74469;52.520;16.998;2024-01-15T12:30:59;5.40;;;2.90;;
84303;SDS011;74469;52.520;16.998;2024-01-15T12:36:03;6.70;;;2.90;;
84303;SDS011;74469;52.520;16.998;2024-01-15T12:41:06;3.60;;;1.40;;
84303;SDS011;74469;52.520;16.998;2024-01-15T12:46:09;0.20;;;0.20;;
84303;SDS011;74469;52.520;16.998;2024-01-15T12:51:12;0.80;;;0.20;;
84303;SDS011;74469;52.520;16.998;2024-01-15T12:56:14;0.00;;;0.00;;
84303;SDS011;74469;52.520;16.998;2024-01-15T13:01:17;0.10;;;0.00;;
84303;SDS011;74469;52.520;16.998;2024-01-15T13:06:20;0.80;;;0.60;;
84303;SDS011;74469;52.520;16.998;2024-01-15T13:11:22;1.40;;;0.20;;
84303;SDS011;74469;52.520;16.998;2024-01-15T13:16:25;0.70;;;0.70;;
84303;SDS011;74469;52.520;16.998;2024-01-15T13:21:31;0.90;;;0.40;;
84303;SDS011;74469;52.520;16.998;2024-01-15T13:26:34;0.20;;;0.10;;
84303;SDS011;74469;52.520;16.998;2024-01-15T13:31:38;0.00;;;0.00;;
84303;SDS011;74469;52.520;16.998;2024-01-15T13:36:40;1.10;;;0.10;;
84303;SDS011;74469;52.520;16.998;2024-01-15T13:41:43;0.10;;;0.10;;
84303;SDS011;74469;52.520;16.998;2024-01-15T13:46:46;0.50;;;0.40;;
84303;SDS011;74469;52.520;16.998;2024-01-15T13:51:49;1.30;;;0.50;;
84303;SDS011;74469;52.520;16.998;2024-01-15T13:56:52;3.20;;;0.90;;
84303;SDS011;74469;52.520;16.998;2024-01-15T14:01:55;1.40;;;0.80;;
84303;SDS011;74469;52.520;16.998;2024-01-15T14:06:57;1.10;;;0.60;;
84303;SDS011;74469;52.520;16.998;2024-01-15T14:12:00;2.60;;;0.70;;
84303;SDS011;74469;52.520;16.998;2024-01-15T14:17:03;2.10;;;1.30;;
84303;SDS011;74469;52.520;16.998;2024-01-15T14:22:06;4.80;;;1.60;;
84303;SDS011;74469;52.520;16.998;2024-01-15T14:27:12;7.40;;;1.90;;
84303;SDS011;74469;52.520;16.998;2024-01-15T14:32:15;6.00;;;1.90;;
84303;SDS011;74469;52.520;16.998;2024-01-15T14:37:17;10.20;;;3.10;;
84303;SDS011;74469;52.520;16.998;2024-01-15T14:42:20;6.10;;;2.00;;
84303;SDS011;74469;52.520;16.998;2024-01-15T14:47:23;1.10;;;0.60;;
84303;SDS011;74469;52.520;16.998;2024-01-15T14:52:26;0.20;;;0.20;;
84303;SDS011;74469;52.520;16.998;2024-01-15T14:57:29;0.30;;;0.30;;
84303;SDS011;74469;52.520;16.998;2024-01-15T15:02:31;0.50;;;0.40;;
84303;SDS011;74469;52.520;16.998;2024-01-15T15:07:34;2.70;;;0.80;;
84303;SDS011;74469;52.520;16.998;2024-01-15T15:12:50;2.00;;;1.10;;
84303;SDS011;74469;52.520;16.998;2024-01-15T15:17:53;3.50;;;1.10;;
84303;SDS011;74469;52.520;16.998;2024-01-15T15:28:43;2.10;;;1.00;;
84303;SDS011;74469;52.520;16.998;2024-01-15T15:33:52;1.90;;;0.50;;
84303;SDS011;74469;52.520;16.998;2024-01-15T15:39:02;2.70;;;0.80;;
84303;SDS011;74469;52.520;16.998;2024-01-15T15:44:05;0.80;;;0.60;;
84303;SDS011;74469;52.520;16.998;2024-01-15T15:49:19;1.00;;;0.70;;
84303;SDS011;74469;52.520;16.998;2024-01-15T15:54:22;2.30;;;0.70;;
84303;SDS011;74469;52.520;16.998;2024-01-15T15:59:28;0.80;;;0.80;;
84303;SDS011;74469;52.520;16.998;2024-01-15T16:04:31;1.10;;;0.70;;
84303;SDS011;74469;52.520;16.998;2024-01-15T16:09:35;3.20;;;0.80;;
84303;SDS011;74469;52.520;16.998;2024-01-15T16:14:56;1.10;;;0.80;;
84303;SDS011;74469;52.520;16.998;2024-01-15T16:20:10;1.90;;;1.10;;
84303;SDS011;74469;52.520;16.998;2024-01-15T16:25:13;0.60;;;0.60;;
84303;SDS011;74469;52.520;16.998;2024-01-15T16:30:16;3.00;;;0.70;;
84303;SDS011;74469;52.520;16.998;2024-01-15T16:35:19;2.40;;;1.50;;
84303;SDS011;74469;52.520;16.998;2024-01-15T16:40:24;1.00;;;0.70;;
84303;SDS011;74469;52.520;16.998;2024-01-15T16:45:30;2.10;;;0.80;;
84303;SDS011;74469;52.520;16.998;2024-01-15T16:50:44;1.00;;;0.80;;
84303;SDS011;74469;52.520;16.998;2024-01-15T16:56:03;0.70;;;0.40;;
84303;SDS011;74469;52.520;16.998;2024-01-15T17:01:09;4.20;;;1.40;;
84303;SDS011;74469;52.520;16.998;2024-01-15T17:06:25;1.40;;;0.90;;
84303;SDS011;74469;52.520;16.998;2024-01-15T17:11:40;4.60;;;1.70;;
84303;SDS011;74469;52.520;16.998;2024-01-15T17:16:50;2.00;;;1.40;;
84303;SDS011;74469;52.520;16.998;2024-01-15T17:21:53;1.70;;;1.10;;
84303;SDS011;74469;52.520;16.998;2024-01-15T17:26:56;2.70;;;0.80;;
84303;SDS011;74469;52.520;16.998;2024-01-15T17:32:00;4.50;;;1.20;;
84303;SDS011;74469;52.520;16.998;2024-01-15T17:37:03;1.40;;;0.90;;
84303;SDS011;74469;52.520;16.998;2024-01-15T17:42:05;22.00;;;2.10;;
84303;SDS011;74469;52.520;16.998;2024-01-15T17:47:10;0.70;;;0.60;;
84303;SDS011;74469;52.520;16.998;2024-01-15T17:52:13;2.50;;;1.10;;
84303;SDS011;74469;52.520;16.998;2024-01-15T17:57:37;0.70;;;0.60;;
84303;SDS011;74469;52.520;16.998;2024-01-15T18:02:39;1.20;;;0.40;;
84303;SDS011;74469;52.520;16.998;2024-01-15T18:07:45;2.40;;;0.90;;
84303;SDS011;74469;52.520;16.998;2024-01-15T18:12:53;2.00;;;1.20;;
84303;SDS011;74469;52.520;16.998;2024-01-15T18:17:59;3.00;;;1.20;;
84303;SDS011;74469;52.520;16.998;2024-01-15T18:23:02;2.00;;;0.90;;
84303;SDS011;74469;52.520;16.998;2024-01-15T18:28:07;4.80;;;1.90;;
84303;SDS011;74469;52.520;16.998;2024-01-15T18:33:10;3.10;;;0.90;;
84303;SDS011;74469;52.520;16.998;2024-01-15T18:38:13;2.10;;;1.30;;
84303;SDS011;74469;52.520;16.998;2024-01-15T18:43:15;7.10;;;1.50;;
84303;SDS011;74469;52.520;16.998;2024-01-15T18:48:18;0.90;;;0.80;;
84303;SDS011;74469;52.520;16.998;2024-01-15T18:53:21;3.10;;;2.00;;
84303;SDS011;74469;52.520;16.998;2024-01-15T18:58:28;1.10;;;0.90;;
84303;SDS011;74469;52.520;16.998;2024-01-15T19:03:36;1.30;;;1.10;;
84303;SDS011;74469;52.520;16.998;2024-01-15T19:08:45;2.60;;;1.50;;
84303;SDS011;74469;52.520;16.998;2024-01-15T19:13:48;1.40;;;1.00;;
84303;SDS011;74469;52.520;16.998;2024-01-15T19:18:51;2.20;;;1.30;;
84303;SDS011;74469;52.520;16.998;2024-01-15T19:23:57;2.20;;;1.30;;
84303;SDS011;74469;52.520;16.998;2024-01-15T19:29:11;11.00;;;1.30;;
84303;SDS011;74469;52.520;16.998;2024-01-15T19:34:17;2.10;;;1.30;;
84303;SDS011;74469;52.520;16.998;2024-01-15T19:39:21;5.70;;;1.30;;
84303;SDS011;74469;52.520;16.998;2024-01-15T19:44:24;5.80;;;1.30;;
84303;SDS011;74469;52.520;16.998;2024-01-15T19:49:26;2.90;;;1.10;;
84303;SDS011;74469;52.520;16.998;2024-01-15T19:54:29;0.70;;;0.60;;
84303;SDS011;74469;52.520;16.998;2024-01-15T19:59:32;5.10;;;1.30;;
84303;SDS011;74469;52.520;16.998;2024-01-15T20:04:34;2.60;;;1.40;;
84303;SDS011;74469;52.520;16.998;2024-01-15T20:09:37;2.70;;;1.20;;
84303;SDS011;74469;52.520;16.998;2024-01-15T20:14:40;3.20;;;1.70;;
84303;SDS011;74469;52.520;16.998;2024-01-15T20:19:43;2.60;;;1.30;;
84303;SDS011;74469;52.520;16.998;2024-01-15T20:24:46;5.10;;;2.20;;
84303;SDS011;74469;52.520;16.998;2024-01-15T20:29:48;6.50;;;1.70;;
84303;SDS011;74469;52.520;16.998;2024-01-15T20:34:51;3.20;;;1.20;;
84303;SDS011;74469;52.520;16.998;2024-01-15T20:39:54;2.90;;;1.30;;
84303;SDS011;74469;52.520;16.998;2024-01-15T20:44:57;3.70;;;1.40;;
84303;SDS011;74469;52.520;16.998;2024-01-15T20:49:59;3.90;;;1.40;;
84303;SDS011;74469;52.520;16.998;2024-01-15T20:55:03;1.60;;;0.80;;
84303;SDS011;74469;52.520;16.998;2024-01-15T21:00:07;6.30;;;2.30;;
84303;SDS011;74469;52.520;16.998;2024-01-15T21:05:10;5.30;;;1.90;;
84303;SDS011;74469;52.520;16.998;2024-01-15T21:10:13;2.30;;;1.10;;
84303;SDS011;74469;52.520;16.998;2024-01-15T21:15:16;1.80;;;1.00;;
84303;SDS011;74469;52.520;16.998;2024-01-15T21:20:20;5.50;;;1.70;;
84303;SDS011;74469;52.520;16.998;2024-01-15T21:25:23;2.20;;;1.20;;
84303;SDS011;74469;52.520;16.998;2024-01-15T21:30:26;3.50;;;1.20;;
84303;SDS011;74469;52.520;16.998;2024-01-15T21:35:28;1.90;;;1.00;;
84303;SDS011;74469;52.520;16.998;2024-01-15T21:40:32;2.20;;;1.10;;
84303;SDS011;74469;52.520;16.998;2024-01-15T21:45:35;2.80;;;1.20;;
84303;SDS011;74469;52.520;16.998;2024-01-15T21:50:37;3.20;;;0.90;;
84303;SDS011;74469;52.520;16.998;2024-01-15T21:55:40;1.70;;;0.80;;
84303;SDS011;74469;52.520;16.998;2024-01-15T22:00:46;1.60;;;0.90;;
84303;SDS011;74469;52.520;16.998;2024-01-15T22:05:52;1.30;;;0.90;;
84303;SDS011;74469;52.520;16.998;2024-01-15T22:10:58;0.80;;;0.50;;
84303;SDS011;74469;52.520;16.998;2024-01-15T22:16:12;3.40;;;0.90;;
84303;SDS011;74469;52.520;16.998;2024-01-15T22:21:26;3.00;;;1.00;;
84303;SDS011;74469;52.520;16.998;2024-01-15T22:26:32;3.00;;;1.20;;
84303;SDS011;74469;52.520;16.998;2024-01-15T22:31:34;2.10;;;1.30;;
84303;SDS011;74469;52.520;16.998;2024-01-15T22:36:37;2.50;;;0.70;;
84303;SDS011;74469;52.520;16.998;2024-01-15T22:41:40;3.20;;;0.70;;
84303;SDS011;74469;52.520;16.998;2024-01-15T22:46:43;0.80;;;0.80;;
84303;SDS011;74469;52.520;16.998;2024-01-15T22:51:45;1.00;;;0.80;;
84303;SDS011;74469;52.520;16.998;2024-01-15T23:01:57;1.40;;;0.90;;
84303;SDS011;74469;52.520;16.998;2024-01-15T23:07:24;2.00;;;0.50;;
84303;SDS011;74469;52.520;16.998;2024-01-15T23:12:25;0.90;;;0.60;;
84303;SDS011;74469;52.520;16.998;2024-01-15T23:17:29;0.80;;;0.60;;
84303;SDS011;74469;52.520;16.998;2024-01-15T23:22:48;3.40;;;0.70;;
84303;SDS011;74469;52.520;16.998;2024-01-15T23:28:11;0.40;;;0.40;;
84303;SDS011;74469;52.520;16.998;2024-01-15T23:33:14;1.20;;;0.40;;
84303;SDS011;74469;52.520;16.998;2024-01-15T23:38:17;0.40;;;0.40;;
84303;SDS011;74469;52.520;16.998;2024-01-15T23:43:19;2.60;;;1.00;;
84303;SDS011;74469;52.520;16.998;2024-01-15T23:48:22;0.90;;;0.40;;
84303;SDS011;74469;52.520;16.998;2024-01-15T23:53:25;1.70;;;0.90;;
84303;SDS011;74469;52.520;16.998;2024-01-15T23:58:27;3.30;;;1.10;;
